Time;durP1;ratioP1;P1;durP2;ratioP2;P2;SDS_P1;SDS_P2;PMS_P1;PMS_P2;Temp;Humidity;BMP_temperature;BMP_pressure;BME280_temperature;BME280_humidity;BME280_pressure;Samples;Min_cycle;Max_cycle;Signal;HPM_P1;HPM_P2
2023/04/02 00:01:37;;;;;;;9.60;8.70;;;8.50;99.90;;;;;;5016565;28;20186;-76
2023/04/02 00:04:13;;;;;;;9.37;8.47;;;8.50;99.90;;;;;;4993469;28;20446;-75
2023/04/02 00:06:43;;;;;;;9.90;8.90;;;8.40;99.90;;;;;;5007976;28;20453;-79
2023/04/02 00:09:12;;;;;;;11.03;9.93;;;8.50;99.90;;;;;;5014916;28;20966;-79
2023/04/02 00:11:43;;;;;;;10.43;9.33;;;8.40;99.90;;;;;;5024177;28;20944;-77
2023/04/02 00:14:23;;;;;;;10.53;9.43;;;8.30;99.90;;;;;;5021303;28;20449;-78
2023/04/02 00:16:50;;;;;;;10.80;9.70;;;8.40;99.90;;;;;;5016971;28;20464;-77
2023/04/02 00:19:23;;;;;;;11.07;9.73;;;8.30;99.90;;;;;;5026502;28;20508;-76
2023/04/02 00:21:50;;;;;;;12.27;10.97;;;8.20;99.90;;;;;;5019117;28;20417;-77
2023/04/02 00:24:20;;;;;;;11.73;10.53;;;8.30;99.90;;;;;;5021225;28;20434;-79
2023/04/02 00:26:50;;;;;;;10.73;9.53;;;8.10;99.90;;;;;;5020857;28;20915;-77
2023/04/02 00:29:17;;;;;;;10.87;9.63;;;8.40;99.90;;;;;;5020874;28;20448;-79
2023/04/02 00:31:49;;;;;;;10.40;9.03;;;8.30;99.90;;;;;;5023787;28;20430;-80
2023/04/02 00:34:36;;;;;;;10.50;9.50;;;8.20;99.90;;;;;;5032872;28;20595;-79
2023/04/02 00:37:03;;;;;;;9.40;8.50;;;8.30;99.90;;;;;;5015741;28;20421;-79
2023/04/02 00:39:33;;;;;;;10.70;9.70;;;8.10;99.90;;;;;;5009580;28;20494;-80
2023/04/02 00:42:08;;;;;;;10.17;9.07;;;8.00;99.90;;;;;;5013465;28;20441;-80
2023/04/02 00:44:43;;;;;;;11.43;10.00;;;8.00;99.90;;;;;;5017243;28;20422;-80
2023/04/02 00:47:25;;;;;;;11.47;9.93;;;8.20;99.90;;;;;;5018215;28;20463;-80
2023/04/02 00:50:11;;;;;;;11.10;9.97;;;8.10;99.90;;;;;;5024527;28;20605;-78
2023/04/02 00:52:38;;;;;;;10.40;9.40;;;7.90;99.90;;;;;;4992216;28;20488;-79
2023/04/02 00:55:11;;;;;;;10.67;9.57;;;7.90;99.90;;;;;;5023461;28;20973;-80
2023/04/02 00:57:41;;;;;;;10.00;9.10;;;8.20;99.90;;;;;;5020198;28;20463;-77
2023/04/02 01:00:14;;;;;;;10.77;9.67;;;8.10;99.90;;;;;;5015532;28;20442;-77
2023/04/02 01:02:40;;;;;;;10.63;9.53;;;7.90;99.90;;;;;;5025257;28;20739;-79
2023/04/02 01:05:16;;;;;;;9.13;8.23;;;8.00;99.90;;;;;;5025014;28;20550;-78
2023/04/02 01:07:50;;;;;;;9.00;8.10;;;7.80;99.90;;;;;;5018678;28;20965;-79
2023/04/02 01:10:47;;;;;;;9.20;8.30;;;7.70;99.90;;;;;;5016601;28;20441;-78
2023/04/02 01:13:37;;;;;;;8.93;8.03;;;7.70;99.90;;;;;;5010391;28;20501;-78
2023/04/02 01:16:29;;;;;;;8.67;7.87;;;7.70;99.90;;;;;;5018075;28;20459;-77
2023/04/02 01:19:00;;;;;;;8.60;7.40;;;7.70;99.90;;;;;;5011265;28;20856;-80
2023/04/02 01:21:41;;;;;;;8.73;7.90;;;7.60;99.90;;;;;;5019032;28;20430;-78
2023/04/02 01:24:12;;;;;;;7.60;6.90;;;7.60;99.90;;;;;;5028961;28;20944;-78
2023/04/02 01:26:56;;;;;;;7.37;6.70;;;7.60;99.90;;;;;;5016679;28;20466;-80
2023/04/02 01:29:31;;;;;;;6.43;5.90;;;7.60;99.90;;;;;;5018191;28;20440;-80
2023/04/02 01:32:07;;;;;;;6.90;6.20;;;7.50;99.90;;;;;;5014839;28;20414;-80
2023/04/02 01:34:35;;;;;;;7.53;6.80;;;7.20;99.90;;;;;;5014393;28;20417;-79
2023/04/02 01:37:15;;;;;;;5.97;5.47;;;7.30;99.90;;;;;;5019380;28;20428;-77
2023/04/02 01:39:58;;;;;;;7.13;6.50;;;7.30;99.90;;;;;;5013709;28;20549;-80
2023/04/02 01:42:35;;;;;;;7.00;6.40;;;7.40;99.90;;;;;;5009267;28;20516;-80
2023/04/02 01:45:14;;;;;;;7.97;7.17;;;7.30;99.90;;;;;;4998537;28;20961;-79
2023/04/02 01:47:42;;;;;;;7.47;6.77;;;7.30;99.90;;;;;;5016951;28;20474;-80
2023/04/02 01:50:11;;;;;;;7.40;6.60;;;7.20;99.90;;;;;;5021010;28;20445;-80
2023/04/02 01:52:40;;;;;;;6.70;6.10;;;7.20;99.90;;;;;;5019537;28;20536;-77
2023/04/02 01:55:09;;;;;;;6.87;6.30;;;7.30;99.90;;;;;;5014107;28;20476;-79
2023/04/02 01:57:35;;;;;;;7.30;6.60;;;7.30;99.90;;;;;;4999112;28;20543;-79
2023/04/02 02:00:08;;;;;;;6.70;6.10;;;7.40;99.90;;;;;;5027339;28;20453;-80
2023/04/02 02:02:34;;;;;;;7.17;6.57;;;7.30;99.90;;;;;;5027083;28;20414;-76
2023/04/02 02:05:00;;;;;;;6.87;6.17;;;7.50;99.90;;;;;;5019160;28;20771;-79
2023/04/02 02:07:27;;;;;;;6.70;6.10;;;7.20;99.90;;;;;;5018711;28;20457;-77
2023/04/02 02:09:53;;;;;;;5.93;5.33;;;7.50;99.90;;;;;;5009151;28;20209;-80
2023/04/02 02:12:18;;;;;;;7.77;6.37;;;7.50;99.90;;;;;;5022270;28;20784;-79
2023/04/02 02:14:47;;;;;;;6.00;5.50;;;7.30;99.90;;;;;;5022358;28;20416;-77
2023/04/02 02:17:26;;;;;;;7.03;6.43;;;7.20;99.90;;;;;;5020469;28;20187;-79
2023/04/02 02:19:55;;;;;;;5.87;5.27;;;7.30;99.90;;;;;;5005570;28;20434;-80
2023/04/02 02:22:29;;;;;;;5.67;5.03;;;7.40;99.90;;;;;;5024706;28;20533;-80
2023/04/02 02:24:58;;;;;;;4.80;4.30;;;7.20;99.90;;;;;;5009269;28;20426;-80
2023/04/02 02:27:24;;;;;;;4.90;4.50;;;7.10;99.90;;;;;;5012608;28;20458;-81
2023/04/02 02:30:13;;;;;;;5.47;5.07;;;7.20;99.90;;;;;;5012488;28;20438;-79
2023/04/02 02:33:05;;;;;;;4.90;4.50;;;7.20;99.90;;;;;;5011598;28;20425;-78
2023/04/02 02:35:41;;;;;;;5.40;4.90;;;7.20;99.90;;;;;;4994030;28;20494;-79
2023/04/02 02:38:38;;;;;;;6.60;6.03;;;7.30;99.90;;;;;;5011212;28;20456;-80
2023/04/02 02:41:12;;;;;;;6.73;6.03;;;7.30;99.90;;;;;;5012395;28;20522;-80
2023/04/02 02:43:40;;;;;;;5.20;4.70;;;7.00;99.90;;;;;;5011428;28;20410;-79
2023/04/02 02:46:09;;;;;;;5.50;5.00;;;7.10;99.90;;;;;;5012789;28;20410;-81
2023/04/02 02:48:37;;;;;;;5.00;4.60;;;6.90;99.90;;;;;;5011059;28;20691;-80
2023/04/02 02:51:16;;;;;;;4.57;4.17;;;7.00;99.90;;;;;;5011821;28;20425;-78
2023/04/02 02:53:52;;;;;;;5.10;4.70;;;6.90;99.90;;;;;;5020498;28;20418;-78
2023/04/02 02:56:22;;;;;;;5.87;5.27;;;6.90;99.90;;;;;;5024150;28;20410;-78
2023/04/02 02:58:50;;;;;;;10.83;5.97;;;7.00;99.90;;;;;;5015179;28;20418;-80
2023/04/02 03:01:17;;;;;;;6.90;4.83;;;7.00;99.90;;;;;;5012258;28;20417;-79
2023/04/02 03:03:45;;;;;;;4.63;4.23;;;6.80;99.90;;;;;;4994138;28;20410;-79
2023/04/02 03:06:15;;;;;;;5.30;4.70;;;6.90;99.90;;;;;;5012522;28;20489;-78
2023/04/02 03:08:47;;;;;;;4.67;4.27;;;6.90;99.90;;;;;;5011625;28;20927;-80
2023/04/02 03:11:21;;;;;;;4.80;4.40;;;6.80;99.90;;;;;;5012115;28;20414;-79
2023/04/02 03:13:49;;;;;;;4.43;4.03;;;6.80;99.90;;;;;;5012235;28;20424;-79
2023/04/02 03:16:27;;;;;;;4.07;3.70;;;6.90;99.90;;;;;;5010791;28;20429;-80
2023/04/02 03:19:05;;;;;;;4.63;4.23;;;6.80;99.90;;;;;;4993911;28;20441;-78
2023/04/02 03:22:01;;;;;;;4.20;3.80;;;6.80;99.90;;;;;;4994238;28;20553;-79
2023/04/02 03:25:06;;;;;;;4.33;4.00;;;6.90;99.90;;;;;;5005669;28;20422;-79
2023/04/02 03:27:36;;;;;;;4.80;4.40;;;6.70;99.90;;;;;;5011962;28;20465;-79
2023/04/02 03:30:25;;;;;;;6.03;5.53;;;6.80;99.90;;;;;;5010126;28;20426;-79
2023/04/02 03:32:58;;;;;;;5.13;4.73;;;6.70;99.90;;;;;;5011661;28;20394;-80
2023/04/02 03:35:33;;;;;;;6.00;5.50;;;6.80;99.90;;;;;;5011870;28;20414;-79
2023/04/02 03:38:24;;;;;;;9.30;7.37;;;7.00;99.90;;;;;;5010673;28;20905;-80
2023/04/02 03:41:08;;;;;;;6.93;6.30;;;6.70;99.90;;;;;;5010408;28;20422;-79
2023/04/02 03:43:41;;;;;;;7.70;7.00;;;7.00;99.90;;;;;;5010023;28;20406;-79
2023/04/02 03:46:38;;;;;;;7.93;7.23;;;6.80;99.90;;;;;;4992163;28;20403;-80
2023/04/02 03:49:12;;;;;;;8.00;7.30;;;7.10;99.90;;;;;;4991471;28;20438;-80
2023/04/02 03:51:44;;;;;;;8.87;8.10;;;6.90;99.90;;;;;;5016851;28;20500;-78
2023/04/02 03:54:14;;;;;;;8.30;7.50;;;6.80;99.90;;;;;;5011852;28;20413;-79
2023/04/02 03:56:40;;;;;;;7.70;6.97;;;6.80;99.90;;;;;;5034616;28;20409;-80
2023/04/02 03:59:43;;;;;;;8.90;8.00;;;6.80;99.90;;;;;;5034822;28;20420;-80
2023/04/02 04:02:39;;;;;;;8.17;7.47;;;6.80;99.90;;;;;;5027574;28;20456;-78
2023/04/02 04:05:17;;;;;;;8.33;7.60;;;6.90;99.90;;;;;;5028034;28;20417;-78
2023/04/02 04:07:43;;;;;;;9.40;8.40;;;7.00;99.90;;;;;;5033449;28;20462;-80
2023/04/02 04:10:18;;;;;;;8.83;8.03;;;6.80;99.90;;;;;;5034437;28;20495;-79
2023/04/02 04:12:47;;;;;;;9.83;8.87;;;6.70;99.90;;;;;;5034827;28;20404;-79
2023/04/02 04:15:19;;;;;;;9.80;8.37;;;6.70;99.90;;;;;;5034965;28;20921;-80
2023/04/02 04:18:00;;;;;;;9.10;8.07;;;6.60;99.90;;;;;;5034911;28;20421;-78
2023/04/02 04:20:33;;;;;;;9.90;8.90;;;6.60;99.90;;;;;;5033658;28;20433;-76
2023/04/02 04:23:28;;;;;;;9.57;8.70;;;6.60;99.90;;;;;;5016798;28;20413;-79
2023/04/02 04:26:18;;;;;;;11.33;8.73;;;6.50;99.90;;;;;;5018749;28;20413;-80
2023/04/02 04:29:15;;;;;;;10.13;9.10;;;6.50;99.90;;;;;;5015605;28;20621;-79
2023/04/02 04:31:48;;;;;;;10.23;9.23;;;6.30;99.90;;;;;;5014731;28;20426;-79
2023/04/02 04:34:35;;;;;;;10.97;9.97;;;6.40;99.90;;;;;;5013305;28;20493;-80
2023/04/02 04:37:06;;;;;;;10.40;9.40;;;6.50;99.90;;;;;;5014229;28;20413;-78
2023/04/02 04:39:58;;;;;;;11.50;10.30;;;6.40;99.90;;;;;;5013237;28;20468;-78
2023/04/02 04:42:27;;;;;;;11.10;9.80;;;6.50;99.90;;;;;;4997485;28;20422;-79
2023/04/02 04:45:08;;;;;;;13.77;10.90;;;6.50;99.90;;;;;;5014061;28;20595;-78
2023/04/02 04:47:42;;;;;;;12.13;10.80;;;6.50;99.90;;;;;;5029870;28;20550;-78
2023/04/02 04:50:32;;;;;;;12.63;10.80;;;6.50;99.90;;;;;;5029449;28;20521;-78
2023/04/02 04:53:05;;;;;;;12.67;9.57;;;6.30;99.90;;;;;;5014740;28;20820;-77
2023/04/02 04:55:43;;;;;;;12.47;11.17;;;6.10;99.90;;;;;;5013513;28;20742;-77
2023/04/02 04:58:33;;;;;;;12.80;11.40;;;6.20;99.90;;;;;;5013996;28;20927;-79
2023/04/02 05:01:01;;;;;;;14.63;11.50;;;6.20;99.90;;;;;;5018537;28;20475;-78
2023/04/02 05:04:00;;;;;;;13.93;11.70;;;6.30;99.90;;;;;;5020770;28;20406;-76
2023/04/02 05:06:39;;;;;;;13.40;11.20;;;6.10;99.90;;;;;;4996691;28;20422;-78
2023/04/02 05:09:28;;;;;;;12.40;11.17;;;6.20;99.90;;;;;;5012853;28;20529;-78
2023/04/02 05:12:06;;;;;;;13.47;11.47;;;6.20;99.90;;;;;;5015252;28;20719;-80
2023/04/02 05:14:50;;;;;;;13.33;11.13;;;6.00;99.90;;;;;;4996635;28;20410;-80
2023/04/02 05:17:42;;;;;;;14.20;11.23;;;6.10;99.90;;;;;;5013748;28;20436;-79
2023/04/02 05:20:15;;;;;;;13.43;11.60;;;6.10;99.90;;;;;;5013726;28;20464;-80
2023/04/02 05:22:46;;;;;;;13.77;12.13;;;6.10;99.90;;;;;;5015585;28;20805;-78
2023/04/02 05:25:29;;;;;;;14.57;12.70;;;6.10;99.90;;;;;;5019917;28;20418;-78
2023/04/02 05:28:14;;;;;;;15.53;12.63;;;5.90;99.90;;;;;;5013891;28;20512;-80
2023/04/02 05:30:54;;;;;;;14.30;12.80;;;6.10;99.90;;;;;;5012774;28;20434;-80
2023/04/02 05:33:23;;;;;;;14.50;12.70;;;6.20;99.90;;;;;;5014791;28;20454;-80
2023/04/02 05:35:56;;;;;;;15.90;13.20;;;6.00;99.90;;;;;;5013724;28;20410;-80
2023/04/02 05:38:26;;;;;;;16.10;11.90;;;5.90;99.90;;;;;;5026496;28;20493;-80
2023/04/02 05:41:06;;;;;;;14.63;12.47;;;6.10;99.90;;;;;;5013574;28;20480;-80
2023/04/02 05:43:34;;;;;;;16.10;12.20;;;5.90;99.90;;;;;;5012658;28;20422;-77
2023/04/02 05:46:06;;;;;;;20.57;12.97;;;5.90;99.90;;;;;;4997053;28;20414;-80
2023/04/02 05:48:42;;;;;;;15.50;12.37;;;5.80;99.90;;;;;;5014243;28;20458;-80
2023/04/02 05:51:16;;;;;;;13.47;12.00;;;5.80;99.90;;;;;;5014102;28;20934;-78
2023/04/02 05:53:53;;;;;;;16.37;12.57;;;5.70;99.90;;;;;;5013255;28;20958;-80
2023/04/02 05:56:24;;;;;;;12.83;11.47;;;5.90;99.90;;;;;;5014283;28;20411;-80
2023/04/02 05:58:56;;;;;;;13.10;11.60;;;5.80;99.90;;;;;;5013713;28;20457;-80
2023/04/02 06:01:38;;;;;;;15.33;12.43;;;5.60;99.90;;;;;;5013691;28;20413;-77
2023/04/02 06:04:32;;;;;;;16.53;13.90;;;5.80;99.90;;;;;;5012182;28;20426;-80
2023/04/02 06:07:11;;;;;;;14.70;12.80;;;5.70;99.90;;;;;;5003957;28;20462;-79
2023/04/02 06:09:57;;;;;;;19.93;12.37;;;5.80;99.90;;;;;;5012756;28;20458;-80
2023/04/02 06:12:41;;;;;;;16.67;11.73;;;5.70;99.90;;;;;;4996345;28;20501;-79
2023/04/02 06:15:20;;;;;;;15.60;12.40;;;5.70;99.90;;;;;;5014011;28;20437;-78
2023/04/02 06:17:46;;;;;;;13.30;10.93;;;5.80;99.90;;;;;;5013536;28;21028;-79
2023/04/02 06:20:16;;;;;;;16.73;11.77;;;5.70;99.90;;;;;;5012530;28;20773;-80
2023/04/02 06:22:46;;;;;;;13.80;11.10;;;5.60;99.90;;;;;;5012651;28;20410;-78
2023/04/02 06:25:18;;;;;;;12.60;10.83;;;5.80;99.90;;;;;;5018437;28;20994;-80
2023/04/02 06:27:46;;;;;;;13.83;11.60;;;5.60;99.90;;;;;;5012175;28;20469;-79
2023/04/02 06:30:24;;;;;;;14.07;10.27;;;5.60;99.90;;;;;;5022973;28;20468;-78
2023/04/02 06:32:50;;;;;;;14.07;10.97;;;5.90;99.90;;;;;;5013205;28;20773;-79
2023/04/02 06:35:16;;;;;;;10.90;9.60;;;5.70;99.90;;;;;;5011499;28;20548;-79
2023/04/02 06:37:45;;;;;;;11.17;10.07;;;5.90;99.90;;;;;;5025219;28;20463;-80
2023/04/02 06:40:40;;;;;;;14.50;10.33;;;5.90;99.90;;;;;;5013522;28;20460;-80
2023/04/02 06:43:21;;;;;;;13.53;9.37;;;5.70;99.90;;;;;;5012090;28;20425;-79
2023/04/02 06:45:50;;;;;;;11.40;8.43;;;5.90;99.90;;;;;;5012148;28;20429;-79
2023/04/02 06:48:18;;;;;;;13.07;9.20;;;5.80;99.90;;;;;;4996402;28;20457;-79
2023/04/02 06:51:12;;;;;;;9.90;8.40;;;6.00;99.90;;;;;;5028753;28;20411;-80
2023/04/02 06:53:50;;;;;;;10.07;8.93;;;5.80;99.90;;;;;;5011835;28;20423;-77
2023/04/02 06:56:43;;;;;;;13.53;9.30;;;5.60;99.90;;;;;;5013384;28;20865;-80
2023/04/02 06:59:09;;;;;;;11.27;9.60;;;5.70;99.90;;;;;;5011920;28;20434;-78
2023/04/02 07:01:44;;;;;;;11.00;8.83;;;5.70;99.90;;;;;;5011420;28;20425;-80
2023/04/02 07:04:10;;;;;;;10.93;9.50;;;5.80;99.90;;;;;;4994995;28;20525;-79
2023/04/02 07:06:35;;;;;;;11.07;9.53;;;5.50;99.90;;;;;;5013285;28;20434;-80
2023/04/02 07:09:02;;;;;;;13.77;10.20;;;5.50;99.90;;;;;;5025229;28;20429;-76
2023/04/02 07:11:28;;;;;;;9.93;8.43;;;5.30;99.90;;;;;;5032212;28;20253;-78
2023/04/02 07:13:54;;;;;;;11.70;9.53;;;5.60;99.90;;;;;;5031210;28;20460;-78
2023/04/02 07:16:24;;;;;;;11.90;9.40;;;5.80;99.90;;;;;;5031024;28;20186;-78
2023/04/02 07:18:50;;;;;;;12.07;10.67;;;5.70;99.90;;;;;;5022964;28;20241;-77
2023/04/02 07:21:16;;;;;;;9.73;8.47;;;5.60;99.90;;;;;;5014673;28;20437;-79
2023/04/02 07:23:41;;;;;;;8.73;7.00;;;5.60;99.90;;;;;;5027305;28;20425;-80
2023/04/02 07:26:11;;;;;;;8.40;7.60;;;5.60;99.90;;;;;;5013537;28;20218;-77
2023/04/02 07:28:37;;;;;;;8.40;7.60;;;5.60;99.90;;;;;;5006824;28;20234;-77
2023/04/02 07:31:03;;;;;;;7.30;6.00;;;5.50;99.90;;;;;;5020359;28;20909;-78
2023/04/02 07:33:29;;;;;;;6.90;6.17;;;5.70;99.90;;;;;;5012904;28;20557;-77
2023/04/02 07:35:56;;;;;;;7.17;6.43;;;5.60;99.90;;;;;;5015905;28;20568;-77
2023/04/02 07:38:22;;;;;;;7.40;6.47;;;5.70;99.90;;;;;;5015136;28;20508;-77
2023/04/02 07:40:48;;;;;;;8.60;6.70;;;5.70;99.90;;;;;;5012236;28;20512;-81
2023/04/02 07:43:14;;;;;;;7.93;6.47;;;5.50;99.90;;;;;;5012874;28;20426;-78
2023/04/02 07:45:40;;;;;;;7.70;5.50;;;5.50;99.90;;;;;;5034571;28;20437;-78
2023/04/02 07:48:07;;;;;;;7.40;6.50;;;5.60;99.90;;;;;;5022838;28;20211;-79
2023/04/02 07:50:33;;;;;;;10.43;5.87;;;5.80;99.90;;;;;;5002054;28;20725;-79
2023/04/02 07:52:58;;;;;;;7.10;6.17;;;5.80;99.90;;;;;;5031176;28;20508;-79
2023/04/02 07:55:24;;;;;;;7.07;6.37;;;5.60;99.90;;;;;;5029690;28;20391;-78
2023/04/02 07:57:53;;;;;;;6.47;5.93;;;5.80;99.90;;;;;;5012929;28;20179;-79
2023/04/02 08:00:19;;;;;;;6.10;5.50;;;5.70;99.90;;;;;;5029926;28;20202;-80
2023/04/02 08:02:46;;;;;;;6.70;6.10;;;5.40;99.90;;;;;;5029722;28;20762;-79
2023/04/02 08:05:12;;;;;;;7.10;6.13;;;5.50;99.90;;;;;;5029584;28;20475;-79
2023/04/02 08:07:38;;;;;;;7.03;6.40;;;5.50;99.90;;;;;;5030787;28;20468;-79
2023/04/02 08:10:05;;;;;;;6.47;5.80;;;5.70;99.90;;;;;;5030998;28;20937;-79
2023/04/02 08:12:31;;;;;;;7.30;6.60;;;5.50;99.90;;;;;;5029927;28;20187;-79
2023/04/02 08:14:57;;;;;;;7.60;6.60;;;5.60;99.90;;;;;;5017754;28;20457;-79
2023/04/02 08:17:23;;;;;;;6.97;6.27;;;5.70;99.90;;;;;;5018839;28;20479;-80
2023/04/02 08:19:50;;;;;;;9.37;6.10;;;5.50;99.90;;;;;;5008418;28;20501;-79
2023/04/02 08:22:15;;;;;;;6.73;6.03;;;5.70;99.90;;;;;;5009241;28;20472;-78
2023/04/02 08:24:41;;;;;;;6.20;5.70;;;5.70;99.90;;;;;;5007317;28;20472;-78
2023/04/02 08:27:07;;;;;;;7.03;6.00;;;5.70;99.90;;;;;;5015349;28;20473;-78
2023/04/02 08:29:32;;;;;;;7.00;5.70;;;5.60;99.90;;;;;;5011664;28;20211;-80
2023/04/02 08:31:59;;;;;;;6.80;5.30;;;5.70;99.90;;;;;;4999999;28;20235;-79
2023/04/02 08:34:26;;;;;;;5.53;5.03;;;5.70;99.90;;;;;;5022703;28;20219;-79
2023/04/02 08:36:55;;;;;;;7.70;5.60;;;5.70;99.90;;;;;;5012668;28;20806;-79
2023/04/02 08:39:21;;;;;;;5.50;5.00;;;5.60;99.90;;;;;;5018746;28;20482;-77
2023/04/02 08:42:18;;;;;;;6.73;5.60;;;5.60;99.90;;;;;;5013039;28;20511;-79
2023/04/02 08:44:48;;;;;;;6.30;5.70;;;5.70;99.90;;;;;;5013753;28;20454;-79
2023/04/02 08:47:18;;;;;;;6.00;5.50;;;5.90;99.90;;;;;;5025878;28;20989;-78
2023/04/02 08:49:52;;;;;;;9.83;5.30;;;5.90;99.90;;;;;;5013338;28;20490;-80
2023/04/02 08:52:38;;;;;;;5.83;5.23;;;5.80;99.90;;;;;;5019759;28;20563;-80
2023/04/02 08:55:21;;;;;;;5.70;5.20;;;5.60;99.90;;;;;;5025152;28;21700;-78
2023/04/02 08:57:56;;;;;;;7.17;5.43;;;5.90;99.90;;;;;;5018713;28;20468;-77
2023/04/02 09:00:38;;;;;;;7.87;5.07;;;5.80;99.90;;;;;;5015392;28;20456;-80
2023/04/02 09:03:18;;;;;;;5.53;5.03;;;5.70;99.90;;;;;;5012035;28;20532;-78
2023/04/02 09:05:46;;;;;;;5.30;4.90;;;6.00;99.90;;;;;;5011602;28;20464;-80
2023/04/02 09:08:20;;;;;;;6.50;5.90;;;5.70;99.90;;;;;;5021570;28;20474;-79
2023/04/02 09:11:06;;;;;;;5.67;4.73;;;5.90;99.90;;;;;;5013227;28;20461;-81
2023/04/02 09:13:36;;;;;;;5.10;4.30;;;6.00;99.90;;;;;;5035970;28;20436;-79
2023/04/02 09:16:08;;;;;;;5.43;4.53;;;6.00;99.90;;;;;;5014263;28;20445;-77
2023/04/02 09:18:35;;;;;;;5.43;4.80;;;5.80;99.90;;;;;;5021952;28;20499;-78
2023/04/02 09:21:20;;;;;;;7.37;5.00;;;6.00;99.90;;;;;;5014258;28;21169;-80
2023/04/02 09:23:47;;;;;;;4.60;4.20;;;6.00;99.90;;;;;;5029068;28;20445;-80
2023/04/02 09:26:31;;;;;;;7.03;4.30;;;6.10;99.90;;;;;;5007840;28;20442;-77
2023/04/02 09:29:12;;;;;;;4.73;4.07;;;5.80;99.90;;;;;;5008270;28;20454;-77
2023/04/02 09:32:06;;;;;;;4.90;4.40;;;5.90;99.90;;;;;;5025544;28;20470;-77
2023/04/02 09:34:35;;;;;;;4.97;3.70;;;5.60;99.90;;;;;;5008965;28;20465;-78
2023/04/02 09:37:21;;;;;;;5.73;4.30;;;5.60;99.90;;;;;;5008168;28;20439;-80
2023/04/02 09:39:47;;;;;;;6.37;4.10;;;5.90;99.90;;;;;;5009225;28;20532;-79
2023/04/02 09:42:35;;;;;;;4.90;3.83;;;6.10;99.90;;;;;;5005841;28;20470;-77
2023/04/02 09:45:22;;;;;;;5.13;4.07;;;6.10;99.90;;;;;;5005876;28;20711;-77
2023/04/02 09:47:56;;;;;;;4.30;3.70;;;6.20;99.90;;;;;;5009360;28;20481;-79
2023/04/02 09:50:25;;;;;;;4.30;3.93;;;6.00;99.90;;;;;;5008460;28;20441;-78
2023/04/02 09:52:51;;;;;;;4.53;3.90;;;6.30;99.90;;;;;;5002993;28;20446;-77
2023/04/02 09:55:24;;;;;;;5.57;3.60;;;6.20;99.90;;;;;;5007080;28;20792;-77
2023/04/02 09:58:05;;;;;;;5.07;3.87;;;6.10;99.90;;;;;;5011438;28;21041;-77
2023/04/02 10:00:31;;;;;;;4.30;3.13;;;6.40;99.90;;;;;;5025978;28;20889;-78
2023/04/02 10:03:02;;;;;;;3.27;2.80;;;6.20;99.90;;;;;;5019492;28;20433;-78
2023/04/02 10:05:30;;;;;;;3.83;3.43;;;6.10;99.90;;;;;;5012368;28;20207;-80
2023/04/02 10:08:07;;;;;;;4.63;3.80;;;6.10;99.90;;;;;;5016927;28;20465;-79
2023/04/02 10:10:43;;;;;;;4.13;3.73;;;6.40;99.90;;;;;;5019580;28;20468;-78
2023/04/02 10:13:30;;;;;;;4.23;3.93;;;6.40;99.90;;;;;;5017939;28;20845;-80
2023/04/02 10:16:11;;;;;;;3.50;3.17;;;6.50;99.90;;;;;;5025054;28;20445;-79
2023/04/02 10:18:40;;;;;;;4.50;3.60;;;6.40;99.90;;;;;;5010993;28;20456;-80
2023/04/02 10:21:09;;;;;;;4.33;3.67;;;6.50;99.90;;;;;;5016245;28;20513;-77
2023/04/02 10:23:35;;;;;;;3.73;3.43;;;6.30;99.90;;;;;;5002574;28;20529;-79
2023/04/02 10:26:21;;;;;;;3.57;3.27;;;6.20;99.90;;;;;;5013223;28;20468;-79
2023/04/02 10:28:56;;;;;;;3.80;3.40;;;6.30;99.90;;;;;;5012866;28;20549;-79
2023/04/02 10:31:37;;;;;;;4.27;3.30;;;6.40;99.90;;;;;;5022161;28;20448;-79
2023/04/02 10:34:14;;;;;;;3.80;3.50;;;6.30;99.90;;;;;;5013082;28;20458;-80
2023/04/02 10:36:57;;;;;;;3.80;3.50;;;6.40;99.90;;;;;;5015160;28;20430;-78
2023/04/02 10:39:42;;;;;;;5.20;4.47;;;6.40;99.90;;;;;;5018230;28;20505;-77
2023/04/02 10:42:22;;;;;;;5.70;3.80;;;6.40;99.90;;;;;;5022461;28;20452;-80
2023/04/02 10:45:00;;;;;;;3.93;3.57;;;6.30;99.90;;;;;;5018506;28;20445;-78
2023/04/02 10:47:37;;;;;;;8.70;4.00;;;6.30;99.90;;;;;;5014721;28;20465;-77
2023/04/02 10:50:17;;;;;;;4.00;3.70;;;6.20;99.90;;;;;;5018414;28;20802;-80
2023/04/02 10:53:05;;;;;;;4.73;3.80;;;6.40;99.90;;;;;;5014587;28;20441;-78
2023/04/02 10:55:34;;;;;;;5.07;4.20;;;6.30;99.90;;;;;;5015673;28;21001;-80
2023/04/02 10:58:06;;;;;;;5.40;4.00;;;6.30;99.90;;;;;;5012064;28;20446;-78
2023/04/02 11:00:37;;;;;;;4.27;3.50;;;6.60;99.90;;;;;;4995965;28;20454;-80
2023/04/02 11:03:27;;;;;;;4.57;4.17;;;6.30;99.90;;;;;;5012798;28;20438;-75
2023/04/02 11:05:57;;;;;;;5.13;3.70;;;6.60;99.90;;;;;;4991218;28;20904;-78
2023/04/02 11:08:42;;;;;;;3.90;3.50;;;6.70;99.90;;;;;;5012805;28;20477;-80
2023/04/02 11:11:18;;;;;;;3.57;2.87;;;6.50;99.90;;;;;;5009551;28;20438;-79
2023/04/02 11:14:00;;;;;;;4.77;4.27;;;6.80;99.90;;;;;;5026239;28;20815;-78
2023/04/02 11:16:26;;;;;;;3.80;3.50;;;6.70;99.90;;;;;;5011660;28;20440;-77
2023/04/02 11:19:13;;;;;;;4.03;3.60;;;6.60;99.90;;;;;;5022035;28;20958;-78
2023/04/02 11:21:42;;;;;;;4.47;4.07;;;6.70;99.90;;;;;;5009559;28;20553;-79
2023/04/02 11:24:35;;;;;;;4.43;3.87;;;6.80;99.90;;;;;;5012130;28;20442;-79
2023/04/02 11:27:10;;;;;;;4.00;3.47;;;6.70;99.90;;;;;;5012586;28;20470;-79
2023/04/02 11:30:12;;;;;;;4.83;4.03;;;6.60;99.90;;;;;;4985277;28;20461;-77
2023/04/02 11:32:41;;;;;;;5.53;4.00;;;6.80;99.90;;;;;;4998613;28;20991;-77
2023/04/02 11:35:30;;;;;;;4.00;3.60;;;6.90;99.90;;;;;;5017051;28;20450;-77
2023/04/02 11:38:08;;;;;;;4.10;3.80;;;6.90;99.90;;;;;;5003230;28;20438;-79
2023/04/02 11:40:55;;;;;;;4.63;3.10;;;7.10;99.90;;;;;;5017347;28;20501;-79
2023/04/02 11:43:34;;;;;;;4.10;3.47;;;6.90;99.90;;;;;;5005209;28;20500;-77
2023/04/02 11:46:15;;;;;;;3.47;3.17;;;6.90;99.90;;;;;;5007240;28;20812;-79
2023/04/02 11:48:41;;;;;;;3.90;3.60;;;6.80;99.90;;;;;;5005574;28;20472;-79
2023/04/02 11:51:19;;;;;;;4.13;3.73;;;6.90;99.90;;;;;;5011282;28;20438;-78
2023/04/02 11:53:45;;;;;;;3.23;2.93;;;6.90;99.90;;;;;;5017706;28;20453;-78
2023/04/02 11:56:37;;;;;;;3.30;3.00;;;7.30;99.90;;;;;;5009633;28;20965;-78
2023/04/02 11:59:22;;;;;;;4.90;3.63;;;7.10;99.90;;;;;;5007537;28;20776;-79
2023/04/02 12:02:03;;;;;;;4.17;3.77;;;7.00;99.90;;;;;;5017108;28;20433;-78
2023/04/02 12:04:42;;;;;;;4.40;3.60;;;6.90;99.90;;;;;;5008024;28;20461;-77
2023/04/02 12:07:33;;;;;;;3.30;2.73;;;7.10;99.90;;;;;;5018579;28;20469;-79
2023/04/02 12:10:14;;;;;;;4.17;3.77;;;7.10;99.90;;;;;;5006485;28;20967;-79
2023/04/02 12:12:41;;;;;;;5.00;3.10;;;6.90;99.90;;;;;;5008111;28;20473;-78
2023/04/02 12:15:30;;;;;;;3.40;2.90;;;7.00;99.90;;;;;;5033629;28;20973;-79
2023/04/02 12:18:13;;;;;;;3.73;2.93;;;7.00;99.90;;;;;;5008312;28;20806;-79
2023/04/02 12:20:41;;;;;;;3.47;2.70;;;7.10;99.90;;;;;;5017410;28;21012;-79
2023/04/02 12:23:19;;;;;;;4.07;2.60;;;7.20;99.90;;;;;;5001449;28;20800;-79
2023/04/02 12:25:54;;;;;;;2.77;2.57;;;7.10;99.90;;;;;;5013863;28;20468;-79
2023/04/02 12:28:21;;;;;;;3.90;2.90;;;7.00;99.90;;;;;;5015244;28;20570;-79
2023/04/02 12:30:48;;;;;;;2.67;2.47;;;7.20;99.90;;;;;;5026431;28;20516;-78
2023/04/02 12:33:36;;;;;;;3.37;2.40;;;7.10;99.90;;;;;;5023004;28;20481;-78
2023/04/02 12:36:15;;;;;;;2.37;2.03;;;7.10;99.90;;;;;;5012220;28;20453;-79
2023/04/02 12:38:51;;;;;;;2.50;2.30;;;7.00;99.90;;;;;;5009933;28;20466;-79
2023/04/02 12:41:23;;;;;;;4.00;2.77;;;7.10;99.90;;;;;;5019909;28;21073;-79
2023/04/02 12:44:03;;;;;;;2.50;2.30;;;7.00;99.90;;;;;;5024580;28;20434;-79
2023/04/02 12:46:32;;;;;;;2.87;2.30;;;7.10;99.90;;;;;;5010171;28;20441;-79
2023/04/02 12:49:05;;;;;;;2.63;2.00;;;7.30;99.90;;;;;;5011029;28;20527;-79
2023/04/02 12:51:32;;;;;;;4.00;2.17;;;7.20;99.90;;;;;;5011313;28;20461;-79
2023/04/02 12:53:58;;;;;;;3.77;2.67;;;7.20;99.90;;;;;;5011292;28;20443;-79
2023/04/02 12:56:24;;;;;;;2.70;2.50;;;7.30;99.90;;;;;;5012751;28;20437;-78
2023/04/02 12:58:58;;;;;;;4.50;2.70;;;7.50;99.90;;;;;;5024975;28;20216;-79
2023/04/02 13:01:30;;;;;;;2.90;2.60;;;7.20;99.90;;;;;;5010914;28;21100;-79
2023/04/02 13:04:10;;;;;;;3.87;2.97;;;7.10;99.90;;;;;;5012414;28;20508;-79
2023/04/02 13:06:46;;;;;;;3.90;3.60;;;7.20;99.90;;;;;;5011400;28;20814;-79
2023/04/02 13:09:41;;;;;;;4.97;3.53;;;7.10;99.90;;;;;;5010876;28;20966;-78
2023/04/02 13:12:25;;;;;;;8.33;3.80;;;7.20;99.90;;;;;;5013597;28;20449;-79
2023/04/02 13:14:56;;;;;;;3.77;3.37;;;7.40;99.90;;;;;;5006125;28;20461;-79
2023/04/02 13:17:45;;;;;;;3.30;2.93;;;7.20;99.90;;;;;;5008145;28;20458;-79
2023/04/02 13:20:37;;;;;;;4.80;3.30;;;7.20;99.90;;;;;;5009224;28;21016;-79
2023/04/02 13:23:24;;;;;;;3.60;3.30;;;7.50;99.90;;;;;;5013641;28;20458;-79
2023/04/02 13:25:50;;;;;;;3.40;3.00;;;7.30;99.90;;;;;;5002384;28;20461;-79
2023/04/02 13:28:16;;;;;;;3.40;3.10;;;7.30;99.90;;;;;;5012408;28;20519;-78
2023/04/02 13:30:42;;;;;;;3.63;3.33;;;7.30;99.90;;;;;;5021768;28;20457;-79
2023/04/02 13:33:08;;;;;;;3.00;2.80;;;7.30;99.90;;;;;;5018856;28;20442;-78
2023/04/02 13:35:34;;;;;;;3.50;3.10;;;7.50;99.90;;;;;;5013941;28;20666;-79